createdAt,value
2022-12-08T00:01:18.819Z,83.90
2022-12-08T00:03:46.124Z,83.04
2022-12-08T00:06:23.462Z,84.02
2022-12-08T00:08:50.548Z,83.09
2022-12-08T00:11:18.155Z,83.02
2022-12-08T00:13:46.154Z,83.20
2022-12-08T00:16:13.054Z,83.30
2022-12-08T00:18:39.651Z,83.06
2022-12-08T00:21:07.096Z,83.29
2022-12-08T00:23:33.666Z,83.33
2022-12-08T00:26:02.919Z,83.78
2022-12-08T00:28:29.522Z,83.48
2022-12-08T00:30:57.384Z,82.91
2022-12-08T00:33:24.131Z,83.88
2022-12-08T00:35:50.688Z,82.99
2022-12-08T00:38:17.251Z,83.37
2022-12-08T00:40:44.527Z,82.62
2022-12-08T00:43:11.104Z,82.95
2022-12-08T00:45:37.732Z,83.05
2022-12-08T00:48:06.494Z,83.14
2022-12-08T00:50:33.411Z,83.40
2022-12-08T00:52:59.938Z,83.85
2022-12-08T00:55:26.522Z,82.56
2022-12-08T00:57:53.062Z,83.59
2022-12-08T01:00:20.366Z,82.59
2022-12-08T01:02:46.983Z,82.73
2022-12-08T01:05:15.006Z,83.41
2022-12-08T01:07:41.597Z,83.54
2022-12-08T01:10:08.981Z,82.43
2022-12-08T01:12:35.644Z,83.67
2022-12-08T01:15:02.993Z,83.07
2022-12-08T01:17:29.642Z,83.50
2022-12-08T01:19:56.191Z,83.44
2022-12-08T01:22:24.456Z,84.01
2022-12-08T01:24:51.065Z,84.77
2022-12-08T01:27:17.625Z,83.88
2022-12-08T01:29:44.179Z,83.94
2022-12-08T01:32:10.672Z,84.49
2022-12-08T01:34:37.307Z,84.16
2022-12-08T01:37:03.807Z,84.53
2022-12-08T01:39:31.704Z,84.96
2022-12-08T01:41:58.220Z,85.54
2022-12-08T01:44:51.435Z,85.65
2022-12-08T01:47:18.038Z,85.99
2022-12-08T01:49:44.770Z,86.12
2022-12-08T01:52:15.994Z,86.15
2022-12-08T01:54:49.052Z,85.29
2022-12-08T01:57:18.430Z,85.59
2022-12-08T01:59:48.519Z,86.45
2022-12-08T02:02:15.293Z,87.31
2022-12-08T02:04:41.947Z,87.54
2022-12-08T02:07:10.098Z,87.97
2022-12-08T02:09:39.756Z,88.53
2022-12-08T02:12:09.266Z,89.00
2022-12-08T02:14:35.847Z,89.29
2022-12-08T02:17:10.243Z,88.98
2022-12-08T02:20:05.222Z,89.44
2022-12-08T02:22:39.945Z,89.85
2022-12-08T02:25:15.724Z,90.27
2022-12-08T02:27:55.730Z,90.26
2022-12-08T02:30:26.165Z,90.33
2022-12-08T02:33:32.837Z,90.20
2022-12-08T02:36:08.099Z,90.19
2022-12-08T02:38:47.482Z,90.67
2022-12-08T02:41:25.044Z,89.03
2022-12-08T02:43:58.922Z,89.04
2022-12-08T02:46:30.554Z,87.82
2022-12-08T02:48:59.134Z,87.62
2022-12-08T02:51:27.039Z,86.93
2022-12-08T02:53:53.545Z,86.41
2022-12-08T02:56:37.669Z,87.11
2022-12-08T02:59:19.856Z,86.84
2022-12-08T03:02:01.851Z,87.34
2022-12-08T03:04:41.350Z,86.61
2022-12-08T03:07:15.099Z,86.55
2022-12-08T03:09:47.754Z,87.03
2022-12-08T03:12:25.987Z,87.22
2022-12-08T03:14:55.163Z,87.38
2022-12-08T03:17:25.387Z,87.20
2022-12-08T03:19:54.669Z,87.21
2022-12-08T03:22:25.462Z,87.36
2022-12-08T03:24:52.739Z,87.20
2022-12-08T03:27:21.803Z,88.03
2022-12-08T03:29:50.909Z,87.31
2022-12-08T03:32:23.910Z,87.64
2022-12-08T03:34:51.654Z,88.20
2022-12-08T03:37:18.631Z,86.75
2022-12-08T03:39:46.717Z,86.76
2022-12-08T03:42:13.220Z,86.61
2022-12-08T03:44:39.827Z,86.45
2022-12-08T03:47:06.411Z,87.02
2022-12-08T03:49:32.931Z,86.29
2022-12-08T03:51:59.478Z,86.27
2022-12-08T03:54:26.030Z,86.09
2022-12-08T03:56:53.891Z,86.05
2022-12-08T03:59:20.472Z,85.82
2022-12-08T04:01:46.984Z,85.26
2022-12-08T04:04:13.528Z,84.93
2022-12-08T04:06:40.034Z,84.87
2022-12-08T04:09:06.611Z,84.39
2022-12-08T04:11:33.251Z,83.55
2022-12-08T04:14:01.148Z,83.10
2022-12-08T04:16:27.825Z,82.97
2022-12-08T04:18:55.059Z,83.06
2022-12-08T04:21:21.793Z,83.75
2022-12-08T04:23:48.877Z,84.05
2022-12-08T04:26:15.701Z,84.24
2022-12-08T04:28:42.338Z,84.17
2022-12-08T04:31:10.355Z,84.79
2022-12-08T04:33:36.970Z,85.20
2022-12-08T04:36:05.313Z,84.85
2022-12-08T04:38:32.064Z,85.79
2022-12-08T04:40:58.730Z,86.41
2022-12-08T04:43:25.400Z,85.87
2022-12-08T04:45:51.937Z,86.50
2022-12-08T04:48:19.808Z,86.80
2022-12-08T04:50:46.530Z,86.50
2022-12-08T04:53:14.065Z,86.96
2022-12-08T04:55:41.992Z,85.60
2022-12-08T04:58:12.557Z,85.55
2022-12-08T05:00:39.064Z,87.11
2022-12-08T05:03:05.678Z,87.70
2022-12-08T05:05:33.567Z,89.60
2022-12-08T05:08:00.199Z,90.33
2022-12-08T05:10:26.783Z,89.67
2022-12-08T05:12:53.332Z,90.30
2022-12-08T05:15:20.007Z,89.86
2022-12-08T05:17:46.538Z,89.87
2022-12-08T05:20:13.478Z,89.64
2022-12-08T05:22:41.322Z,90.62
2022-12-08T05:25:08.237Z,90.97
2022-12-08T05:27:35.045Z,91.39
2022-12-08T05:30:01.744Z,92.37
2022-12-08T05:32:28.412Z,92.87
2022-12-08T05:34:54.986Z,93.31
2022-12-08T05:37:21.514Z,92.49
2022-12-08T05:39:49.367Z,92.58
2022-12-08T05:42:19.337Z,93.50
2022-12-08T05:44:48.328Z,92.78
2022-12-08T05:47:14.931Z,92.37
2022-12-08T05:49:41.459Z,92.52
2022-12-08T05:52:07.968Z,92.57
2022-12-08T05:54:34.481Z,92.94
2022-12-08T05:57:02.330Z,91.69
2022-12-08T05:59:28.852Z,92.29
2022-12-08T06:01:55.466Z,92.06
2022-12-08T06:04:22.057Z,91.43
2022-12-08T06:06:48.563Z,90.76
2022-12-08T06:09:15.104Z,90.67
2022-12-08T06:11:42.615Z,90.70
2022-12-08T06:14:12.023Z,91.63
2022-12-08T06:16:38.763Z,92.36
2022-12-08T06:19:05.331Z,91.44
2022-12-08T06:21:31.835Z,91.39
2022-12-08T06:23:58.370Z,91.70
2022-12-08T06:26:24.954Z,92.14
2022-12-08T06:28:51.998Z,91.40
2022-12-08T06:31:21.456Z,90.77
2022-12-08T06:33:48.249Z,90.33
2022-12-08T06:36:17.150Z,89.99
2022-12-08T06:38:44.168Z,90.00
2022-12-08T06:41:11.795Z,90.76
2022-12-08T06:43:38.657Z,90.84
2022-12-08T06:46:06.875Z,91.32
2022-12-08T06:48:35.082Z,91.54
2022-12-08T06:51:07.281Z,90.03
2022-12-08T06:53:33.801Z,89.94
2022-12-08T06:56:00.425Z,89.48
2022-12-08T06:58:26.947Z,88.67
2022-12-08T07:00:53.523Z,88.35
2022-12-08T07:03:20.164Z,87.98
2022-12-08T07:05:48.030Z,88.63
2022-12-08T07:08:14.669Z,87.77
2022-12-08T07:10:41.242Z,86.87
2022-12-08T07:13:07.744Z,87.79
2022-12-08T07:15:34.257Z,88.02
2022-12-08T07:18:00.885Z,88.12
2022-12-08T07:20:27.779Z,88.54
2022-12-08T07:22:55.670Z,88.08
2022-12-08T07:25:22.262Z,88.70
2022-12-08T07:27:48.872Z,87.28
2022-12-08T07:30:15.445Z,87.36
2022-12-08T07:32:41.962Z,88.40
2022-12-08T07:35:09.559Z,87.51
2022-12-08T07:37:37.498Z,87.57
2022-12-08T07:40:07.166Z,89.20
2022-12-08T07:42:34.296Z,87.87
2022-12-08T07:45:00.853Z,88.08
2022-12-08T07:47:27.387Z,87.18
2022-12-08T07:49:53.921Z,87.38
2022-12-08T07:52:20.432Z,87.22
2022-12-08T07:54:47.369Z,86.90
2022-12-08T07:57:15.467Z,87.43
2022-12-08T07:59:41.969Z,87.08
2022-12-08T08:02:24.181Z,87.60
2022-12-08T08:04:51.870Z,86.49
2022-12-08T08:07:18.485Z,85.91
2022-12-08T08:09:45.070Z,86.44
2022-12-08T08:12:30.283Z,85.63
2022-12-08T08:14:59.423Z,85.11
2022-12-08T08:17:26.041Z,85.43
2022-12-08T08:19:52.624Z,85.04
2022-12-08T08:22:19.111Z,84.77
2022-12-08T08:24:45.653Z,85.80
2022-12-08T08:27:12.423Z,85.75
2022-12-08T08:29:38.948Z,85.06
2022-12-08T08:32:06.817Z,86.63
2022-12-08T08:34:33.569Z,86.31
2022-12-08T08:37:00.220Z,86.67
2022-12-08T08:39:26.801Z,86.78
2022-12-08T08:41:53.284Z,86.49
2022-12-08T08:44:19.777Z,85.87
2022-12-08T08:46:46.345Z,86.19
2022-12-08T08:49:14.308Z,85.02
2022-12-08T08:51:41.897Z,85.75
2022-12-08T08:54:08.405Z,85.59
2022-12-08T08:56:34.900Z,84.63
2022-12-08T08:59:01.429Z,85.78
2022-12-08T09:01:28.493Z,85.36
2022-12-08T09:03:55.967Z,84.10
2022-12-08T09:06:24.856Z,84.19
2022-12-08T09:08:51.708Z,81.98
2022-12-08T09:11:18.259Z,81.60
2022-12-08T09:13:47.014Z,81.84
2022-12-08T09:16:13.575Z,81.25
2022-12-08T09:18:40.142Z,78.35
2022-12-08T09:21:08.047Z,77.53
2022-12-08T09:23:36.103Z,76.34
2022-12-08T09:26:03.551Z,77.45
2022-12-08T09:28:30.099Z,78.46
2022-12-08T09:30:56.655Z,77.00
2022-12-08T09:33:23.222Z,75.84
2022-12-08T09:35:49.850Z,76.49
2022-12-08T09:38:16.373Z,76.31
2022-12-08T09:40:49.591Z,76.19
2022-12-08T09:43:33.770Z,76.87
2022-12-08T09:46:01.991Z,75.36
2022-12-08T09:48:35.230Z,76.38
2022-12-08T09:51:04.808Z,76.16
2022-12-08T09:53:36.490Z,75.81
2022-12-08T09:56:08.938Z,74.74
2022-12-08T09:58:45.753Z,75.35
2022-12-08T10:01:12.344Z,74.01
2022-12-08T10:03:40.202Z,72.78
2022-12-08T10:06:15.962Z,74.49
2022-12-08T10:08:48.045Z,75.04
2022-12-08T10:11:25.619Z,73.59
2022-12-08T10:14:04.002Z,74.28
2022-12-08T10:16:34.697Z,74.76
2022-12-08T10:19:11.141Z,74.80
2022-12-08T10:21:39.608Z,74.46
2022-12-08T10:24:13.175Z,74.91
2022-12-08T10:26:41.078Z,74.71
2022-12-08T10:29:11.457Z,75.21
2022-12-08T10:31:37.992Z,76.24
2022-12-08T10:34:15.697Z,73.98
2022-12-08T10:36:47.797Z,74.25
2022-12-08T10:39:34.896Z,75.36
2022-12-08T10:42:08.474Z,74.78
2022-12-08T10:44:49.639Z,74.63
2022-12-08T10:47:16.634Z,76.33
2022-12-08T10:49:43.190Z,76.01
2022-12-08T10:52:22.677Z,74.72
2022-12-08T10:54:52.237Z,74.81
2022-12-08T10:57:23.051Z,72.92
2022-12-08T10:59:49.582Z,73.15
2022-12-08T11:02:20.118Z,70.97
2022-12-08T11:04:47.146Z,71.21
2022-12-08T11:07:22.014Z,70.27
2022-12-08T11:09:53.919Z,69.90
2022-12-08T11:12:23.110Z,69.30
2022-12-08T11:14:54.997Z,68.46
2022-12-08T11:17:26.201Z,69.46
2022-12-08T11:19:58.062Z,70.79
2022-12-08T11:22:27.116Z,70.93
2022-12-08T11:24:58.784Z,70.27
2022-12-08T11:27:26.871Z,68.81
2022-12-08T11:29:53.450Z,69.01
2022-12-08T11:32:21.142Z,69.90
2022-12-08T11:34:51.838Z,68.46
2022-12-08T11:37:23.834Z,67.34
2022-12-08T11:39:53.780Z,66.96
2022-12-08T11:42:24.368Z,69.20
2022-12-08T11:44:57.230Z,67.38
2022-12-08T11:47:28.328Z,66.96
2022-12-08T11:50:02.024Z,69.32
2022-12-08T11:52:33.689Z,69.86
2022-12-08T11:55:04.372Z,69.10
2022-12-08T11:57:30.901Z,68.64
2022-12-08T12:00:00.769Z,69.16
2022-12-08T12:02:29.133Z,67.63
2022-12-08T12:05:01.841Z,68.43
2022-12-08T12:07:52.846Z,67.97
2022-12-08T12:10:40.997Z,66.91
2022-12-08T12:13:29.632Z,66.24
2022-12-08T12:16:30.179Z,66.84
2022-12-08T12:19:00.201Z,67.15
2022-12-08T12:21:33.576Z,68.13
2022-12-08T12:24:05.140Z,68.40
2022-12-08T12:26:34.330Z,67.50
2022-12-08T12:29:03.482Z,66.58
2022-12-08T12:31:34.394Z,66.96
2022-12-08T12:34:06.166Z,67.53
2022-12-08T12:36:46.470Z,67.83
2022-12-08T12:39:14.293Z,66.90
2022-12-08T12:41:45.361Z,67.65
2022-12-08T12:44:50.221Z,66.20
2022-12-08T12:47:46.315Z,67.56
2022-12-08T12:50:35.616Z,67.08
2022-12-08T12:53:06.887Z,68.14
2022-12-08T12:55:53.507Z,67.08
2022-12-08T12:58:34.844Z,68.22
2022-12-08T13:01:38.891Z,67.96
2022-12-08T13:04:08.944Z,67.49
2022-12-08T13:06:40.629Z,67.76
2022-12-08T13:09:18.626Z,69.47
2022-12-08T13:11:49.746Z,69.01
2022-12-08T13:14:31.717Z,68.90
2022-12-08T13:17:00.022Z,69.29
2022-12-08T13:19:31.508Z,67.55
2022-12-08T13:21:58.343Z,68.45
2022-12-08T13:24:33.781Z,68.07
2022-12-08T13:27:31.880Z,68.00
2022-12-08T13:30:36.174Z,67.77
2022-12-08T13:33:17.651Z,69.58
2022-12-08T13:35:53.389Z,69.07
2022-12-08T13:38:22.389Z,69.60
2022-12-08T13:40:50.361Z,71.81
2022-12-08T13:43:22.926Z,69.91
2022-12-08T13:55:12.224Z,71.02
2022-12-08T13:57:26.934Z,71.15
2022-12-08T13:59:53.489Z,69.09
2022-12-08T14:02:27.478Z,69.59
2022-12-08T14:05:17.553Z,70.18
2022-12-08T14:07:43.699Z,69.25
2022-12-08T14:10:16.401Z,70.09
2022-12-08T14:12:47.016Z,68.63
2022-12-08T14:15:15.632Z,69.20
2022-12-08T14:17:51.223Z,68.96
2022-12-08T14:20:22.434Z,68.87
2022-12-08T14:22:52.109Z,69.68
2022-12-08T14:25:19.533Z,68.96
2022-12-08T14:27:46.936Z,69.68
2022-12-08T14:30:20.921Z,70.49
2022-12-08T14:32:49.491Z,70.22
2022-12-08T14:35:22.136Z,72.11
2022-12-08T14:37:52.871Z,71.42
2022-12-08T14:40:23.818Z,71.03
2022-12-08T14:42:52.978Z,73.32
2022-12-08T14:45:20.285Z,72.91
2022-12-08T14:47:47.159Z,72.75
2022-12-08T14:50:40.309Z,72.62
2022-12-08T14:53:14.372Z,72.12
2022-12-08T14:55:41.242Z,72.91
2022-12-08T14:58:20.809Z,73.58
2022-12-08T15:00:48.820Z,73.31
2022-12-08T15:03:16.557Z,73.34
2022-12-08T15:05:43.282Z,73.42
2022-12-08T15:08:12.088Z,73.61
2022-12-08T15:10:38.896Z,73.76
2022-12-08T15:13:19.689Z,74.68
2022-12-08T15:15:49.366Z,75.47
2022-12-08T15:18:17.811Z,74.75
2022-12-08T15:20:46.645Z,74.90
2022-12-08T15:23:25.293Z,74.71
2022-12-08T15:25:52.954Z,75.26
2022-12-08T15:28:24.006Z,75.84
2022-12-08T15:30:54.525Z,75.99
2022-12-08T15:33:21.224Z,75.09
2022-12-08T15:35:48.962Z,76.32
2022-12-08T15:38:22.498Z,76.17
2022-12-08T15:40:49.255Z,76.63
2022-12-08T15:43:15.808Z,76.57
2022-12-08T15:45:51.933Z,76.17
2022-12-08T15:48:26.753Z,76.34
2022-12-08T15:50:54.066Z,75.89
2022-12-08T15:53:22.136Z,76.23
2022-12-08T15:56:18.843Z,76.50
2022-12-08T15:58:54.669Z,76.73
2022-12-08T16:01:22.658Z,76.10
2022-12-08T16:09:31.417Z,77.01
2022-12-08T16:12:06.706Z,76.93
2022-12-08T16:15:39.202Z,76.58
2022-12-08T16:17:21.371Z,77.57
2022-12-08T16:19:47.887Z,77.01
2022-12-08T16:22:52.431Z,76.59
2022-12-08T16:25:21.714Z,76.31
2022-12-08T16:28:01.204Z,76.07
2022-12-08T16:30:28.235Z,76.13
2022-12-08T16:32:54.784Z,75.61
2022-12-08T16:35:21.345Z,75.91
2022-12-08T16:37:48.711Z,76.39
2022-12-08T16:40:16.649Z,75.55
2022-12-08T16:42:43.235Z,75.93
2022-12-08T16:45:12.859Z,76.40
2022-12-08T16:47:40.894Z,76.90
2022-12-08T16:50:10.372Z,75.87
2022-12-08T16:52:37.347Z,75.41
2022-12-08T16:55:07.710Z,75.90
2022-12-08T16:57:35.730Z,75.24
2022-12-08T17:00:03.155Z,74.95
2022-12-08T17:02:31.029Z,75.24
2022-12-08T17:04:57.609Z,75.35
2022-12-08T17:07:24.180Z,75.42
2022-12-08T17:09:50.815Z,75.20
2022-12-08T17:12:17.351Z,75.05
2022-12-08T17:14:45.256Z,75.04
2022-12-08T17:17:11.820Z,75.54
2022-12-08T17:19:38.345Z,75.08
2022-12-08T17:22:04.882Z,74.73
2022-12-08T17:24:31.945Z,74.62
2022-12-08T17:26:59.020Z,73.87
2022-12-08T17:29:25.525Z,74.55
2022-12-08T17:31:53.424Z,74.00
2022-12-08T17:34:20.024Z,74.59
2022-12-08T17:36:46.548Z,74.36
2022-12-08T17:39:18.113Z,74.43
2022-12-08T17:41:45.426Z,73.88
2022-12-08T17:44:13.459Z,74.20
2022-12-08T17:46:43.423Z,75.37
2022-12-08T17:49:15.632Z,75.14
2022-12-08T17:51:42.180Z,75.05
2022-12-08T17:54:08.753Z,74.60
2022-12-08T17:56:35.305Z,74.08
2022-12-08T17:59:03.047Z,75.80
2022-12-08T18:01:29.664Z,74.69
2022-12-08T18:03:57.817Z,75.41
2022-12-08T18:06:29.615Z,73.89
2022-12-08T18:11:26.458Z,73.87
2022-12-08T18:13:53.695Z,74.04
2022-12-08T18:16:23.214Z,73.59
2022-12-08T18:18:50.478Z,73.88
2022-12-08T18:21:23.241Z,74.94
2022-12-08T18:23:51.725Z,74.59
2022-12-08T18:26:18.338Z,74.67
2022-12-08T18:28:44.903Z,74.35
2022-12-08T18:31:13.543Z,73.96
2022-12-08T18:33:41.648Z,74.82
2022-12-08T18:36:09.184Z,75.43
2022-12-08T18:38:36.347Z,74.57
2022-12-08T18:41:09.080Z,74.03
2022-12-08T18:43:36.661Z,75.16
2022-12-08T18:46:04.361Z,74.36
2022-12-08T18:48:30.996Z,74.86
2022-12-08T18:50:57.526Z,74.82
2022-12-08T18:53:24.031Z,74.04
2022-12-08T18:55:50.581Z,73.96
2022-12-08T18:58:18.570Z,73.52
2022-12-08T19:00:45.193Z,73.96
2022-12-08T19:03:11.881Z,74.46
2022-12-08T19:05:38.636Z,74.02
2022-12-08T19:08:05.967Z,74.35
2022-12-08T19:10:35.271Z,74.56
2022-12-08T19:13:01.819Z,74.22
2022-12-08T19:15:29.737Z,75.07
2022-12-08T19:17:56.291Z,74.29
2022-12-08T19:20:22.796Z,74.03
2022-12-08T19:22:49.609Z,73.90
2022-12-08T19:25:16.171Z,73.91
2022-12-08T19:27:42.658Z,73.58
2022-12-08T19:30:10.646Z,73.49
2022-12-08T19:32:38.494Z,73.48
2022-12-08T19:35:05.271Z,73.53
2022-12-08T19:37:31.794Z,73.44
2022-12-08T19:39:58.305Z,73.60
2022-12-08T19:42:24.893Z,73.57
2022-12-08T19:44:51.450Z,73.66
2022-12-08T19:47:18.399Z,73.68
2022-12-08T19:49:46.612Z,74.26
2022-12-08T19:52:13.204Z,74.22
2022-12-08T19:54:39.773Z,73.39
2022-12-08T19:57:06.274Z,73.66
2022-12-08T19:59:32.861Z,73.12
2022-12-08T20:01:59.570Z,72.42
2022-12-08T20:04:27.287Z,73.06
2022-12-08T20:06:56.114Z,72.49
2022-12-08T20:09:23.841Z,72.53
2022-12-08T20:11:50.536Z,72.74
2022-12-08T20:14:17.785Z,72.60
2022-12-08T20:16:44.388Z,72.60
2022-12-08T20:19:11.032Z,72.35
2022-12-08T20:21:39.148Z,72.76
2022-12-08T20:24:07.482Z,73.04
2022-12-08T20:26:34.184Z,73.67
2022-12-08T20:29:00.767Z,74.13
2022-12-08T20:31:30.655Z,75.52
2022-12-08T20:33:57.300Z,75.96
2022-12-08T20:36:23.913Z,76.53
2022-12-08T20:38:52.736Z,78.52
2022-12-08T20:41:21.319Z,79.25
2022-12-08T20:43:47.895Z,80.34
2022-12-08T20:46:16.457Z,80.98
2022-12-08T20:48:43.280Z,81.44
2022-12-08T20:51:13.403Z,82.27
2022-12-08T20:53:40.022Z,82.54
2022-12-08T20:56:07.390Z,83.50
2022-12-08T20:58:35.382Z,83.33
2022-12-08T21:01:08.663Z,83.70
2022-12-08T21:03:35.300Z,84.37
2022-12-08T21:06:01.956Z,85.27
2022-12-08T21:08:28.580Z,84.99
2022-12-08T21:10:55.816Z,86.29
2022-12-08T21:13:22.421Z,86.85
2022-12-08T21:15:50.482Z,87.22
2022-12-08T21:18:17.378Z,87.13
2022-12-08T21:20:44.194Z,87.88
2022-12-08T21:23:11.126Z,87.87
2022-12-08T21:25:40.471Z,88.02
2022-12-08T21:28:07.088Z,88.55
2022-12-08T21:30:33.698Z,88.22
2022-12-08T21:33:01.753Z,88.74
2022-12-08T21:35:28.543Z,88.61
2022-12-08T21:37:55.269Z,88.97
2022-12-08T21:40:21.965Z,88.80
2022-12-08T21:42:48.973Z,89.06
2022-12-08T21:45:17.662Z,88.67
2022-12-08T21:47:45.705Z,88.68
2022-12-08T21:50:14.710Z,89.47
2022-12-08T21:52:43.719Z,88.02
2022-12-08T21:55:11.357Z,88.38
2022-12-08T21:57:38.044Z,89.05
2022-12-08T22:00:07.335Z,88.87
2022-12-08T22:02:34.294Z,88.69
2022-12-08T22:05:00.959Z,89.82
2022-12-08T22:07:28.981Z,90.05
2022-12-08T22:09:55.781Z,90.54
2022-12-08T22:12:22.387Z,91.08
2022-12-08T22:14:48.922Z,91.41
2022-12-08T22:17:15.663Z,92.93
2022-12-08T22:19:42.334Z,94.10
2022-12-08T22:22:09.088Z,93.23
2022-12-08T22:24:37.148Z,93.89
2022-12-08T22:27:03.992Z,94.40
2022-12-08T22:29:30.782Z,94.08
2022-12-08T22:31:57.672Z,94.51
2022-12-08T22:34:24.480Z,94.88
2022-12-08T22:36:51.199Z,94.78
2022-12-08T22:39:17.910Z,94.09
2022-12-08T22:41:45.941Z,94.16
2022-12-08T22:44:14.571Z,94.53
2022-12-08T22:46:41.315Z,94.26
2022-12-08T22:49:08.262Z,93.79
2022-12-08T22:51:35.951Z,93.91
2022-12-08T22:54:02.899Z,93.48
2022-12-08T22:56:29.625Z,92.85
2022-12-08T22:58:58.002Z,93.85
2022-12-08T23:01:26.769Z,93.89
2022-12-08T23:03:53.647Z,94.10
2022-12-08T23:06:20.437Z,93.73
2022-12-08T23:08:47.282Z,94.15
2022-12-08T23:11:13.914Z,94.37
2022-12-08T23:13:40.796Z,94.35
2022-12-08T23:16:09.911Z,93.79
2022-12-08T23:18:37.029Z,94.12
2022-12-08T23:21:05.089Z,94.10
2022-12-08T23:23:31.628Z,93.19
2022-12-08T23:25:58.211Z,93.09
2022-12-08T23:28:24.888Z,93.01
2022-12-08T23:30:51.603Z,93.38
2022-12-08T23:33:19.691Z,92.99
2022-12-08T23:35:54.932Z,93.83
2022-12-08T23:38:21.420Z,93.29
2022-12-08T23:40:47.978Z,92.85
2022-12-08T23:43:14.477Z,94.11
2022-12-08T23:45:41.184Z,93.01
2022-12-08T23:48:07.833Z,92.61
2022-12-08T23:50:35.676Z,92.85
2022-12-08T23:53:02.380Z,93.46
2022-12-08T23:55:28.910Z,94.70
2022-12-08T23:57:55.661Z,94.47
